createdAt,value
2019-01-19T00:05:19.241Z,13.97
2019-01-19T00:10:30.533Z,9.83
2019-01-19T00:15:41.020Z,14.50
2019-01-19T00:20:59.244Z,16.27
2019-01-19T00:26:17.604Z,11.33
2019-01-19T00:31:35.914Z,10.40
2019-01-19T00:36:45.452Z,10.53
2019-01-19T00:42:07.571Z,12.07
2019-01-19T00:47:26.399Z,13.47
2019-01-19T00:52:44.158Z,13.83
2019-01-19T00:58:09.680Z,9.57
2019-01-19T01:03:23.566Z,10.77
2019-01-19T01:08:42.422Z,9.70
2019-01-19T01:14:07.749Z,12.73
2019-01-19T01:19:20.687Z,11.00
2019-01-19T01:24:43.679Z,12.13
2019-01-19T01:30:20.707Z,12.33
2019-01-19T01:35:47.681Z,13.30
2019-01-19T01:41:02.464Z,11.80
2019-01-19T01:46:12.800Z,14.70
2019-01-19T01:51:28.786Z,13.57
2019-01-19T01:56:36.032Z,10.97
2019-01-19T02:01:46.486Z,11.77
2019-01-19T02:06:57.732Z,13.80
2019-01-19T02:12:32.317Z,10.13
2019-01-19T02:17:49.612Z,9.77
2019-01-19T02:23:07.109Z,14.73
2019-01-19T02:28:27.642Z,10.47
2019-01-19T02:33:38.644Z,16.23
2019-01-19T02:38:49.037Z,8.20
2019-01-19T02:44:17.849Z,13.50
2019-01-19T02:49:33.979Z,9.50
2019-01-19T02:54:55.349Z,13.73
2019-01-19T03:00:25.618Z,10.27
2019-01-19T03:05:36.522Z,10.20
2019-01-19T03:11:06.826Z,10.53
2019-01-19T03:16:28.548Z,12.23
2019-01-19T03:21:46.709Z,18.73
2019-01-19T03:26:56.900Z,10.33
2019-01-19T03:32:10.347Z,9.50
2019-01-19T03:37:40.006Z,13.43
2019-01-19T03:42:53.534Z,12.80
2019-01-19T03:48:08.954Z,8.83
2019-01-19T03:53:24.956Z,8.97
2019-01-19T03:58:51.560Z,14.10
2019-01-19T04:04:18.217Z,11.20
2019-01-19T04:09:27.750Z,11.77
2019-01-19T04:15:02.345Z,10.87
2019-01-19T04:20:22.066Z,14.13
2019-01-19T04:25:34.675Z,9.53
2019-01-19T04:30:42.659Z,13.33
2019-01-19T04:35:51.372Z,12.83
2019-01-19T04:41:00.648Z,11.03
2019-01-19T04:46:09.690Z,12.50
2019-01-19T04:51:18.123Z,14.77
2019-01-19T04:56:28.014Z,12.83
2019-01-19T05:01:40.815Z,15.10
2019-01-19T05:06:48.047Z,12.10
2019-01-19T05:11:55.870Z,18.13
2019-01-19T05:17:03.954Z,12.73
2019-01-19T05:22:12.447Z,15.20
2019-01-19T05:27:20.364Z,12.30
2019-01-19T05:32:30.072Z,14.43
2019-01-19T05:37:38.970Z,14.93
2019-01-19T05:42:55.953Z,14.30
2019-01-19T05:48:01.841Z,12.73
2019-01-19T05:53:10.490Z,17.50
2019-01-19T05:58:20.294Z,15.90
2019-01-19T06:03:31.124Z,11.73
2019-01-19T06:08:39.629Z,12.07
2019-01-19T06:13:46.667Z,13.63
2019-01-19T06:18:53.185Z,9.77
2019-01-19T06:23:59.582Z,11.77
2019-01-19T06:29:07.565Z,15.07
2019-01-19T06:34:15.185Z,18.53
2019-01-19T06:39:22.254Z,12.70
2019-01-19T06:44:28.913Z,16.27
2019-01-19T06:49:35.452Z,14.23
2019-01-19T06:54:43.323Z,17.17
2019-01-19T06:59:51.253Z,16.60
2019-01-19T07:05:00.510Z,14.73
2019-01-19T07:10:11.180Z,15.23
2019-01-19T07:15:20.398Z,23.97
2019-01-19T07:20:31.170Z,15.97
2019-01-19T07:25:41.330Z,17.07
2019-01-19T07:30:48.776Z,17.50
2019-01-19T07:35:57.057Z,16.47
2019-01-19T07:41:05.210Z,18.70
2019-01-19T07:46:13.219Z,20.00
2019-01-19T07:51:21.873Z,27.73
2019-01-19T07:56:30.127Z,21.43
2019-01-19T08:01:41.868Z,18.10
2019-01-19T08:06:49.325Z,20.07
2019-01-19T08:11:57.503Z,21.27
2019-01-19T08:17:09.488Z,21.47
2019-01-19T08:22:17.681Z,25.40
2019-01-19T08:27:27.136Z,22.50
2019-01-19T08:32:35.741Z,18.33
2019-01-19T08:37:43.815Z,21.73
2019-01-19T08:42:52.871Z,19.77
2019-01-19T08:48:01.470Z,21.00
2019-01-19T08:53:09.356Z,21.00
2019-01-19T08:58:17.369Z,22.33
2019-01-19T09:03:34.571Z,24.03
2019-01-19T09:08:51.491Z,23.07
2019-01-19T09:14:00.959Z,17.33
2019-01-19T09:19:08.860Z,24.33
2019-01-19T09:24:18.172Z,26.23
2019-01-19T09:29:26.583Z,22.17
2019-01-19T09:34:36.553Z,25.13
2019-01-19T09:39:44.851Z,25.40
2019-01-19T09:44:53.039Z,30.33
2019-01-19T09:50:01.468Z,29.63
2019-01-19T09:55:11.448Z,24.43
2019-01-19T10:00:22.112Z,28.37
2019-01-19T10:05:29.956Z,29.10
2019-01-19T10:10:37.314Z,29.70
2019-01-19T10:15:45.559Z,29.70
2019-01-19T10:20:53.161Z,29.33
2019-01-19T10:26:01.540Z,26.30
2019-01-19T10:31:09.880Z,27.60
2019-01-19T10:36:21.490Z,28.37
2019-01-19T10:41:31.340Z,28.10
2019-01-19T10:46:42.750Z,30.40
2019-01-19T10:51:59.341Z,28.43
2019-01-19T10:57:06.693Z,29.40
2019-01-19T11:02:13.909Z,25.07
2019-01-19T11:07:22.480Z,32.30
2019-01-19T11:12:30.944Z,26.43
2019-01-19T11:17:39.072Z,27.57
2019-01-19T11:22:49.455Z,22.67
2019-01-19T11:27:57.078Z,28.63
2019-01-19T11:33:04.232Z,26.53
2019-01-19T11:38:19.897Z,29.37
2019-01-19T11:43:21.458Z,26.13
2019-01-19T11:48:29.594Z,24.17
2019-01-19T11:53:37.001Z,23.27
2019-01-19T11:58:43.452Z,23.67
2019-01-19T12:03:52.948Z,22.87
2019-01-19T12:09:00.779Z,23.27
2019-01-19T12:14:09.176Z,21.50
2019-01-19T12:19:16.208Z,23.07
2019-01-19T12:24:22.790Z,20.87
2019-01-19T12:29:36.730Z,19.47
2019-01-19T12:34:44.536Z,19.30
2019-01-19T12:39:52.866Z,19.27
2019-01-19T12:45:00.821Z,17.77
2019-01-19T12:50:11.581Z,16.60
2019-01-19T12:55:22.474Z,22.03
2019-01-19T13:00:30.699Z,19.43
2019-01-19T13:05:45.732Z,17.57
2019-01-19T13:11:05.215Z,19.50
2019-01-19T13:16:48.431Z,20.17
2019-01-19T13:22:03.453Z,19.33
2019-01-19T13:27:16.927Z,14.10
2019-01-19T13:32:55.046Z,20.13
2019-01-19T13:38:12.618Z,19.60
2019-01-19T13:43:54.663Z,20.07
2019-01-19T13:49:08.998Z,19.00
2019-01-19T13:54:33.816Z,18.53
2019-01-19T13:59:53.975Z,18.40
2019-01-19T14:05:11.676Z,21.47
2019-01-19T14:10:41.856Z,26.43
2019-01-19T14:15:53.945Z,18.50
2019-01-19T14:21:31.257Z,23.50
2019-01-19T14:26:57.970Z,20.47
2019-01-19T14:32:25.262Z,23.60
2019-01-19T14:38:04.869Z,21.10
2019-01-19T14:43:34.466Z,20.33
2019-01-19T14:49:01.078Z,19.97
2019-01-19T14:54:42.244Z,27.30
2019-01-19T15:00:13.314Z,23.10
2019-01-19T15:05:31.809Z,37.50
2019-01-19T15:10:53.220Z,31.07
2019-01-19T15:16:04.206Z,36.27
2019-01-19T15:21:19.800Z,32.63
2019-01-19T15:26:40.830Z,29.10
2019-01-19T15:31:55.249Z,32.30
2019-01-19T15:37:14.245Z,32.17
2019-01-19T15:42:35.258Z,31.97
2019-01-19T15:47:44.641Z,34.77
2019-01-19T15:53:15.548Z,40.23
2019-01-19T15:58:43.881Z,36.27
2019-01-19T16:03:55.609Z,34.80
2019-01-19T16:09:07.459Z,34.33
2019-01-19T16:14:42.115Z,32.03
2019-01-19T16:20:03.255Z,32.07
2019-01-19T16:25:27.319Z,33.97
2019-01-19T16:31:02.472Z,33.37
2019-01-19T16:36:28.112Z,34.27
2019-01-19T16:41:49.976Z,29.43
2019-01-19T16:47:21.264Z,35.60
2019-01-19T16:52:48.925Z,30.73
2019-01-19T16:58:03.821Z,37.67
2019-01-19T17:03:24.877Z,38.80
2019-01-19T17:08:40.326Z,31.50
2019-01-19T17:13:58.029Z,33.97
2019-01-19T17:19:28.662Z,34.87
2019-01-19T17:25:02.260Z,38.97
2019-01-19T17:30:14.300Z,31.47
2019-01-19T17:35:39.742Z,35.17
2019-01-19T17:41:04.808Z,27.80
2019-01-19T17:46:17.201Z,34.43
2019-01-19T17:51:42.549Z,33.73
2019-01-19T17:56:57.337Z,28.13
2019-01-19T18:02:16.565Z,33.47
2019-01-19T18:07:42.434Z,32.17
2019-01-19T18:12:52.140Z,29.83
2019-01-19T18:18:11.077Z,34.93
2019-01-19T18:23:45.041Z,26.53
2019-01-19T18:29:09.400Z,28.93
2019-01-19T18:34:32.425Z,31.27
2019-01-19T18:39:54.836Z,29.00
2019-01-19T18:45:04.696Z,28.40
2019-01-19T18:50:18.430Z,26.60
2019-01-19T18:55:36.342Z,30.60
2019-01-19T19:00:50.833Z,29.27
2019-01-19T19:06:21.358Z,28.20
2019-01-19T19:11:35.744Z,27.50
2019-01-19T19:17:00.427Z,31.67
2019-01-19T19:22:29.637Z,30.40
2019-01-19T19:27:48.000Z,30.23
2019-01-19T19:33:08.877Z,28.80
2019-01-19T19:38:41.353Z,29.37
2019-01-19T19:44:08.019Z,26.33
2019-01-19T19:49:26.060Z,29.03
2019-01-19T19:54:33.152Z,24.83
2019-01-19T19:59:39.146Z,29.40
2019-01-19T20:04:45.239Z,30.00
2019-01-19T20:09:51.196Z,22.80
2019-01-19T20:14:59.548Z,26.37
2019-01-19T20:20:09.208Z,25.17
2019-01-19T20:25:15.235Z,26.77
2019-01-19T20:30:21.556Z,28.10
2019-01-19T20:35:27.449Z,24.97
2019-01-19T20:40:33.333Z,24.20
2019-01-19T20:45:39.468Z,31.83
2019-01-19T20:50:45.853Z,22.27
2019-01-19T20:55:52.039Z,28.77
2019-01-19T21:00:58.285Z,28.13
2019-01-19T21:06:05.253Z,27.13
2019-01-19T21:11:13.434Z,30.60
2019-01-19T21:16:19.463Z,28.87
2019-01-19T21:21:25.850Z,26.57
2019-01-19T21:26:32.369Z,30.10
2019-01-19T21:31:38.153Z,26.37
2019-01-19T21:36:44.785Z,32.43
2019-01-19T21:41:50.715Z,26.50
2019-01-19T21:46:57.629Z,31.43
2019-01-19T21:52:04.151Z,27.60
2019-01-19T21:57:10.436Z,33.87
2019-01-19T22:02:16.471Z,28.37
2019-01-19T22:07:22.619Z,29.00
2019-01-19T22:12:28.723Z,28.53
2019-01-19T22:17:39.450Z,29.17
2019-01-19T22:22:42.397Z,32.17
2019-01-19T22:27:49.102Z,33.33
2019-01-19T22:32:55.752Z,28.90
2019-01-19T22:38:01.553Z,31.97
2019-01-19T22:43:07.871Z,31.27
2019-01-19T22:48:13.665Z,29.93
2019-01-19T22:53:21.037Z,30.10
2019-01-19T22:58:27.507Z,33.63
2019-01-19T23:03:34.052Z,28.90
2019-01-19T23:08:42.017Z,30.83
2019-01-19T23:13:48.835Z,32.10
2019-01-19T23:18:55.087Z,36.07
2019-01-19T23:24:01.527Z,33.10
2019-01-19T23:29:07.098Z,34.00
2019-01-19T23:34:12.734Z,36.63
2019-01-19T23:39:19.571Z,29.67
2019-01-19T23:44:25.473Z,31.13
2019-01-19T23:49:32.437Z,37.93
2019-01-19T23:54:39.513Z,38.53
2019-01-19T23:59:47.314Z,33.77
